Time;durP1;ratioP1;P1;durP2;ratioP2;P2;SDS_P1;SDS_P2;PMS_P1;PMS_P2;Temp;Humidity;BMP_temperature;BMP_pressure;BME280_temperature;BME280_humidity;BME280_pressure;Samples;Min_cycle;Max_cycle;Signal;HPM_P1;HPM_P2
2023/10/10 00:01:17;;;;;;;10.32;4.43;;;;;;;21.59;47.86;101852.97;4988055;28;20031;-61
2023/10/10 00:03:42;;;;;;;10.52;5.10;;;;;;;21.58;47.88;101844.97;4988039;28;20049;-61
2023/10/10 00:06:13;;;;;;;8.13;4.15;;;;;;;21.58;47.90;101850.44;4991887;28;20031;-61
2023/10/10 00:08:46;;;;;;;7.55;3.97;;;;;;;21.57;47.73;101849.56;4991450;28;20035;-61
2023/10/10 00:11:14;;;;;;;6.45;3.03;;;;;;;21.56;48.05;101849.72;4977071;28;20406;-61
2023/10/10 00:13:43;;;;;;;3.25;2.60;;;;;;;21.52;48.18;101848.41;4991906;28;20031;-61
2023/10/10 00:16:11;;;;;;;1.83;1.70;;;;;;;21.49;48.39;101838.69;4975733;28;20038;-61
2023/10/10 00:18:43;;;;;;;4.22;1.73;;;;;;;21.46;48.32;101833.59;4975736;28;20035;-61
2023/10/10 00:21:20;;;;;;;5.05;3.25;;;;;;;21.41;48.67;101839.53;4977158;28;20039;-61
2023/10/10 00:23:47;;;;;;;8.57;4.22;;;;;;;21.39;48.57;101838.88;4990189;28;20077;-60
2023/10/10 00:26:22;;;;;;;12.38;5.18;;;;;;;21.37;48.68;101840.94;4975650;28;20563;-60
2023/10/10 00:28:55;;;;;;;11.05;5.88;;;;;;;21.34;48.27;101838.56;4975599;28;20023;-61
2023/10/10 00:31:24;;;;;;;11.88;5.82;;;;;;;21.32;47.83;101829.72;4975431;28;20491;-61
2023/10/10 00:33:51;;;;;;;16.42;5.20;;;;;;;21.25;48.28;101819.66;4975464;28;20038;-61
2023/10/10 00:36:21;;;;;;;11.10;5.38;;;;;;;21.31;48.10;101830.72;4975486;28;20035;-61
2023/10/10 00:38:50;;;;;;;10.35;6.45;;;;;;;21.30;48.24;101831.75;4975206;28;20035;-60
2023/10/10 00:41:16;;;;;;;7.93;4.55;;;;;;;21.28;47.99;101824.75;4975083;28;20038;-61
2023/10/10 00:43:42;;;;;;;25.40;5.18;;;;;;;21.30;48.44;101833.63;4975184;28;20062;-61
2023/10/10 00:46:11;;;;;;;8.38;4.85;;;;;;;21.28;48.71;101831.06;4975236;28;20042;-61
2023/10/10 00:48:38;;;;;;;7.10;3.83;;;;;;;21.27;48.67;101823.91;4975367;28;20062;-61
2023/10/10 00:51:08;;;;;;;12.70;4.85;;;;;;;21.25;48.85;101819.66;4991201;28;20166;-60
2023/10/10 00:53:35;;;;;;;7.88;4.78;;;;;;;21.25;48.60;101820.50;4990885;28;20035;-61
2023/10/10 00:56:05;;;;;;;12.50;5.85;;;;;;;21.24;48.66;101827.00;4976078;28;20089;-61
2023/10/10 00:58:37;;;;;;;9.00;4.57;;;;;;;21.19;48.82;101810.31;4991081;28;20038;-61
2023/10/10 01:01:10;;;;;;;12.07;4.78;;;;;;;21.21;48.59;101808.28;4974903;28;20038;-61
2023/10/10 01:03:36;;;;;;;9.18;5.05;;;;;;;21.21;48.67;101813.72;4991118;28;20110;-60
2023/10/10 01:06:06;;;;;;;9.00;5.70;;;;;;;21.19;48.07;101812.22;4974909;28;20044;-60
2023/10/10 01:08:57;;;;;;;9.20;5.22;;;;;;;21.17;48.38;101806.91;4974887;28;20054;-60
2023/10/10 01:11:22;;;;;;;9.20;4.68;;;;;;;21.17;48.44;101806.91;4990962;28;20093;-60
2023/10/10 01:13:56;;;;;;;12.50;5.80;;;;;;;21.13;48.98;101805.56;4990803;28;20026;-61
2023/10/10 01:16:24;;;;;;;12.15;5.13;;;;;;;21.13;49.37;101805.56;4974204;28;20043;-61
2023/10/10 01:18:59;;;;;;;4.72;3.13;;;;;;;21.11;48.58;101804.88;4990635;28;20081;-61
2023/10/10 01:21:43;;;;;;;7.32;4.10;;;;;;;21.08;48.75;101805.22;4973694;28;20097;-61
2023/10/10 01:24:15;;;;;;;7.30;4.35;;;;;;;21.04;48.77;101795.69;4973961;28;20054;-61
2023/10/10 01:26:44;;;;;;;8.13;4.30;;;;;;;21.03;48.56;101806.72;4959145;28;20019;-61
2023/10/10 01:29:28;;;;;;;7.55;3.60;;;;;;;21.01;48.72;101804.19;4990169;28;20448;-60
2023/10/10 01:31:58;;;;;;;10.48;4.80;;;;;;;20.95;48.75;101787.69;4988353;28;20041;-61
2023/10/10 01:34:31;;;;;;;8.80;4.32;;;;;;;20.96;48.42;101784.81;4975585;28;20039;-61
2023/10/10 01:37:41;;;;;;;;;;;;;;;20.95;48.88;101785.81;4974530;28;20398;-61
2023/10/10 01:40:17;;;;;;;11.25;5.18;;;;;;;20.91;49.50;101776.28;4975254;28;20271;-61
2023/10/10 01:42:51;;;;;;;14.35;5.20;;;;;;;20.88;48.79;101773.94;4989454;28;20034;-61
2023/10/10 01:45:19;;;;;;;5.72;3.60;;;;;;;20.88;49.17;101779.38;4973962;28;20043;-61
2023/10/10 01:47:56;;;;;;;6.53;3.60;;;;;;;20.84;48.44;101775.28;4991062;28;20023;-61
2023/10/10 01:50:22;;;;;;;10.95;4.65;;;;;;;20.82;49.02;101780.06;4973961;28;20123;-60
2023/10/10 01:52:48;;;;;;;9.50;3.92;;;;;;;20.75;48.45;101771.72;4990260;28;20039;-61
2023/10/10 01:55:16;;;;;;;9.20;4.55;;;;;;;20.77;48.70;101771.56;4990035;28;20051;-61
2023/10/10 01:57:42;;;;;;;9.13;5.50;;;;;;;20.76;48.95;101773.44;4989773;28;20407;-61
2023/10/10 02:00:34;;;;;;;8.88;5.30;;;;;;;20.73;48.72;101764.75;4973747;28;20030;-61
2023/10/10 02:02:55;;;;;;;9.25;4.85;;;;;;;20.75;49.45;101763.53;4985356;28;20402;-60
2023/10/10 02:08:09;;;;;;;9.15;5.82;;;;;;;20.75;49.00;101762.69;4975370;28;20035;-62
2023/10/10 02:10:36;;;;;;;11.98;5.50;;;;;;;20.73;49.61;101764.75;4974984;28;20047;-62
2023/10/10 02:13:05;;;;;;;12.38;5.82;;;;;;;20.74;49.02;101761.00;4989839;28;20030;-62
2023/10/10 02:15:35;;;;;;;11.38;5.90;;;;;;;20.73;49.14;101751.13;4972497;28;20098;-62
2023/10/10 02:18:04;;;;;;;15.52;6.22;;;;;;;20.71;49.16;101755.91;4973336;28;20035;-62
2023/10/10 02:28:19;;;;;;;12.10;5.22;;;;;;;20.68;49.02;101751.66;4988636;28;20041;-62
2023/10/10 02:30:48;;;;;;;6.32;4.05;;;;;;;20.66;49.44;101744.69;4973358;28;20039;-62
2023/10/10 02:35:55;;;;;;;14.98;5.90;;;;;;;20.62;49.39;101746.91;4974670;28;20035;-62
2023/10/10 02:38:39;;;;;;;13.82;5.70;;;;;;;20.64;49.13;101746.72;4973090;28;20041;-62
2023/10/10 02:44:09;;;;;;;8.40;4.30;;;;;;;20.60;48.98;101737.19;4987543;28;20034;-62
2023/10/10 02:46:39;;;;;;;7.25;3.50;;;;;;;20.58;49.06;101744.66;4972939;28;20414;-62
2023/10/10 02:49:13;;;;;;;5.97;3.70;;;;;;;20.57;49.38;101742.97;4989367;28;20038;-62
2023/10/10 02:51:43;;;;;;;8.93;4.65;;;;;;;20.55;49.41;101736.84;4974322;28;20027;-62
2023/10/10 02:56:58;;;;;;;4.75;2.85;;;;;;;20.50;48.96;101736.50;4987495;28;20093;-62
2023/10/10 02:59:38;;;;;;;4.15;2.97;;;;;;;20.47;49.28;101736.84;4973108;28;20053;-62
2023/10/10 03:02:16;;;;;;;4.65;3.20;;;;;;;20.45;48.90;101728.00;4987904;28;20491;-62
2023/10/10 03:07:31;;;;;;;9.70;4.80;;;;;;;20.37;48.68;101731.59;4986869;28;20031;-62
2023/10/10 03:10:39;;;;;;;9.10;5.07;;;;;;;20.39;48.98;101740.44;4974214;28;20054;-62
2023/10/10 03:13:14;;;;;;;11.50;4.63;;;;;;;20.39;48.85;101740.44;4988613;28;20046;-62
2023/10/10 03:15:49;;;;;;;8.85;5.10;;;;;;;20.39;49.22;101739.56;4976643;28;20045;-68
2023/10/10 03:18:19;;;;;;;10.40;5.30;;;;;;;20.39;49.06;101734.13;4975260;28;20034;-61
2023/10/10 03:20:51;;;;;;;10.57;5.28;;;;;;;20.36;48.80;101729.03;4976518;28;20041;-61
2023/10/10 03:28:20;;;;;;;11.05;5.13;;;;;;;20.43;49.38;101721.91;4987743;28;20092;-61
2023/10/10 03:30:50;;;;;;;11.52;4.78;;;;;;;20.42;49.54;101718.31;4988326;28;20538;-60
2023/10/10 03:33:35;;;;;;;11.98;4.70;;;;;;;20.47;48.86;101720.50;4973941;28;20027;-61
2023/10/10 03:36:22;;;;;;;11.23;4.43;;;;;;;20.51;48.94;101728.19;4972442;28;20466;-61
2023/10/10 05:25:33;;;;;;;8.95;4.18;;;;;;;20.81;49.39;101686.59;4976143;28;20046;-61
2023/10/10 05:28:03;;;;;;;8.38;3.80;;;;;;;20.84;49.47;101690.84;4990689;28;20034;-61
2023/10/10 05:30:39;;;;;;;6.88;3.33;;;;;;;20.84;50.05;101693.56;4990098;28;20414;-61
2023/10/10 05:33:05;;;;;;;6.47;3.15;;;;;;;20.84;49.60;101697.16;4988996;28;20495;-61
2023/10/10 05:35:38;;;;;;;10.60;4.25;;;;;;;20.85;49.92;101692.56;4974258;28;20395;-60
2023/10/10 05:38:04;;;;;;;10.20;3.20;;;;;;;20.84;49.03;101696.28;4990731;28;20037;-61
2023/10/10 05:40:33;;;;;;;10.57;3.78;;;;;;;20.86;49.99;101694.22;4974590;28;20061;-61
2023/10/10 05:43:00;;;;;;;11.10;5.22;;;;;;;20.84;49.63;101693.56;4990483;28;20033;-61
2023/10/10 05:45:25;;;;;;;14.48;4.70;;;;;;;20.82;49.29;101693.75;4973220;28;20054;-60
2023/10/10 05:47:51;;;;;;;8.90;3.40;;;;;;;20.77;49.50;101684.41;4974317;28;20031;-60
2023/10/10 05:50:18;;;;;;;10.65;3.20;;;;;;;20.76;48.97;101691.72;4990365;28;20513;-60
2023/10/10 05:52:44;;;;;;;7.72;3.60;;;;;;;20.72;49.05;101686.78;4974162;28;20442;-61
2023/10/10 05:55:10;;;;;;;9.05;4.07;;;;;;;20.68;49.24;101680.00;4973391;28;20130;-62
2023/10/10 05:57:39;;;;;;;5.88;3.60;;;;;;;20.70;49.75;101681.53;4973999;28;20046;-61
2023/10/10 06:00:10;;;;;;;12.63;3.42;;;;;;;20.69;49.55;101682.53;4957825;28;20077;-59
2023/10/10 06:02:42;;;;;;;5.60;2.92;;;;;;;20.69;49.71;101696.16;4984077;28;20034;-60
2023/10/10 06:05:09;;;;;;;8.63;4.30;;;;;;;20.69;49.80;101687.13;4974710;28;20045;-60
2023/10/10 06:07:37;;;;;;;10.90;3.47;;;;;;;20.70;49.44;101694.28;4975096;28;20110;-61
2023/10/10 06:10:06;;;;;;;10.63;3.10;;;;;;;20.69;48.79;101681.69;4974001;28;20038;-62
2023/10/10 06:12:36;;;;;;;7.97;3.17;;;;;;;20.71;49.29;101682.38;4973630;28;20042;-60
2023/10/10 06:15:05;;;;;;;7.55;3.25;;;;;;;20.72;49.24;101681.34;4989514;28;20026;-61
2023/10/10 06:17:33;;;;;;;7.25;3.25;;;;;;;20.70;49.93;101684.25;4973736;28;20043;-61
2023/10/10 06:20:00;;;;;;;6.70;3.13;;;;;;;20.72;49.08;101692.22;4973708;28;20039;-60
2023/10/10 06:22:29;;;;;;;12.00;3.85;;;;;;;20.73;49.17;101702.97;4973716;28;20122;-61
2023/10/10 06:24:58;;;;;;;10.43;3.78;;;;;;;20.75;49.29;101697.31;4974188;28;20035;-61
2023/10/10 06:27:28;;;;;;;7.47;3.13;;;;;;;20.79;49.36;101690.53;4973782;28;20042;-61
2023/10/10 06:29:58;;;;;;;8.30;3.75;;;;;;;20.81;49.11;101689.31;4973615;28;20035;-61
2023/10/10 06:32:25;;;;;;;13.52;3.92;;;;;;;20.86;48.92;101688.78;4986546;28;20043;-61
2023/10/10 06:37:40;;;;;;;7.22;3.58;;;;;;;20.97;49.15;101685.69;4989075;28;20046;-61
2023/10/10 06:40:08;;;;;;;7.68;3.65;;;;;;;21.04;49.03;101688.56;4973531;28;20035;-60
2023/10/10 06:42:35;;;;;;;8.68;2.95;;;;;;;21.12;49.22;101683.97;4969072;28;20503;-60
2023/10/10 06:45:11;;;;;;;8.95;4.18;;;;;;;21.20;48.96;101686.66;4973113;28;20039;-61
2023/10/10 06:47:43;;;;;;;6.65;3.67;;;;;;;21.34;49.69;101687.78;4988074;28;20033;-61
2023/10/10 06:50:12;;;;;;;6.03;3.72;;;;;;;21.42;48.88;101685.84;4974408;28;20043;-61
2023/10/10 06:52:38;;;;;;;7.80;4.03;;;;;;;21.53;49.20;101681.00;4989450;28;20055;-60
2023/10/10 06:55:12;;;;;;;9.85;3.90;;;;;;;21.64;48.93;101686.06;4974200;28;20074;-61
2023/10/10 06:57:38;;;;;;;9.10;3.47;;;;;;;21.74;49.06;101678.50;4957510;28;20046;-60
2023/10/10 07:00:21;;;;;;;11.27;3.67;;;;;;;21.85;49.20;101675.38;4972969;28;20037;-62
2023/10/10 07:02:54;;;;;;;8.50;3.72;;;;;;;21.98;48.79;101681.09;4958533;28;20050;-61
2023/10/10 07:05:19;;;;;;;;;;;;;;;22.10;49.35;101679.63;4973210;28;20049;-60
2023/10/10 07:07:58;;;;;;;8.57;4.10;;;;;;;22.23;48.21;101676.25;4956861;28;19914;-61
2023/10/10 07:10:33;;;;;;;6.18;3.63;;;;;;;22.40;48.10;101675.09;4972765;28;20495;-61
2023/10/10 07:13:03;;;;;;;8.05;3.95;;;;;;;22.55;47.88;101682.28;4973876;28;20046;-61
2023/10/10 07:15:37;;;;;;;12.68;3.95;;;;;;;22.70;48.48;101678.75;4979852;28;20431;-61
2023/10/10 07:18:14;;;;;;;11.23;4.07;;;;;;;22.84;48.08;101672.41;4995520;28;20035;-61
2023/10/10 07:23:24;;;;;;;10.38;3.38;;;;;;;23.14;48.49;101674.13;4993361;28;20041;-61
2023/10/10 07:25:59;;;;;;;15.43;4.22;;;;;;;23.25;47.34;101665.44;4979227;28;20129;-61
2023/10/10 07:28:28;;;;;;;10.43;3.63;;;;;;;23.47;48.16;101672.66;4979171;28;20035;-61
2023/10/10 07:30:55;;;;;;;8.80;3.72;;;;;;;23.63;47.71;101680.63;4995380;28;20031;-61
2023/10/10 07:33:23;;;;;;;8.73;3.67;;;;;;;23.78;48.17;101677.84;4995369;28;20211;-61
2023/10/10 07:35:53;;;;;;;8.55;3.60;;;;;;;23.89;46.84;101677.34;4995220;28;20065;-60
2023/10/10 07:38:28;;;;;;;9.02;3.33;;;;;;;24.04;47.22;101685.47;4979340;28;20085;-61
2023/10/10 07:40:54;;;;;;;7.90;3.80;;;;;;;24.15;47.04;101671.28;4994978;28;20039;-61
2023/10/10 07:43:26;;;;;;;9.65;3.70;;;;;;;24.25;46.76;101666.31;4979334;28;20516;-61
2023/10/10 07:45:54;;;;;;;9.02;3.10;;;;;;;24.37;46.63;101670.22;4979298;28;20418;-61
2023/10/10 07:50:48;;;;;;;5.57;3.08;;;;;;;24.57;46.01;101668.44;4979102;28;20503;-62
2023/10/10 07:53:16;;;;;;;7.53;3.72;;;;;;;24.65;46.18;101671.03;4980198;28;20462;-61
2023/10/10 07:55:52;;;;;;;8.48;3.88;;;;;;;24.73;45.83;101665.41;4995310;28;20057;-59
2023/10/10 07:58:20;;;;;;;12.73;3.88;;;;;;;24.88;45.52;101671.66;4978968;28;20038;-62
2023/10/10 08:00:45;;;;;;;14.82;4.72;;;;;;;24.96;45.44;101661.56;4995698;28;20039;-63
2023/10/10 08:03:19;;;;;;;12.93;3.55;;;;;;;25.02;45.14;101664.34;4995325;28;20046;-63
2023/10/10 08:05:53;;;;;;;8.52;3.13;;;;;;;25.01;45.06;101645.34;4964120;28;20533;-63
2023/10/10 08:08:18;;;;;;;10.43;3.30;;;;;;;25.01;45.08;101648.94;4994874;28;20031;-63
2023/10/10 08:10:49;;;;;;;6.63;2.95;;;;;;;25.08;45.66;101648.97;4978463;28;20033;-63
2023/10/10 08:13:14;;;;;;;6.35;3.03;;;;;;;25.09;45.35;101654.25;4978745;28;20034;-63
2023/10/10 08:16:01;;;;;;;8.98;4.55;;;;;;;25.14;45.37;101648.16;4978648;28;20042;-63
2023/10/10 08:19:10;;;;;;;12.45;3.90;;;;;;;25.17;45.04;101647.75;4992286;28;20219;-63
2023/10/10 08:21:16;;;;;;;10.07;3.00;;;;;;;25.23;45.05;101646.94;4976863;28;20085;-63
2023/10/10 08:23:43;;;;;;;10.07;4.03;;;;;;;25.30;45.14;101650.53;4994827;28;20131;-63
2023/10/10 08:26:18;;;;;;;9.35;3.30;;;;;;;25.32;44.46;101652.00;4991254;28;20062;-63
2023/10/10 08:28:48;;;;;;;13.43;3.50;;;;;;;25.39;44.68;101663.03;4975536;28;20050;-62
2023/10/10 08:31:16;;;;;;;13.07;3.97;;;;;;;25.45;44.46;101660.31;4976700;28;20495;-63
2023/10/10 08:33:44;;;;;;;12.38;4.00;;;;;;;25.53;44.26;101659.31;4975828;28;20046;-63
2023/10/10 08:36:12;;;;;;;13.45;4.55;;;;;;;25.59;44.21;101646.66;4975660;28;20110;-63
2023/10/10 08:38:42;;;;;;;12.00;3.72;;;;;;;25.67;44.21;101650.06;4991585;28;20442;-62
2023/10/10 08:41:08;;;;;;;12.02;3.92;;;;;;;25.81;44.09;101651.75;4976638;28;20043;-64
2023/10/10 08:43:36;;;;;;;13.43;4.35;;;;;;;25.87;43.82;101647.34;4976469;28;20065;-62
2023/10/10 08:46:04;;;;;;;7.53;3.90;;;;;;;25.89;43.72;101642.47;4975023;28;20410;-63
2023/10/10 08:48:29;;;;;;;11.43;3.70;;;;;;;25.98;43.39;101642.06;4990880;28;20050;-62
2023/10/10 08:50:55;;;;;;;15.43;3.80;;;;;;;26.01;43.89;101652.66;4976335;28;20470;-63
2023/10/10 08:53:24;;;;;;;11.38;3.05;;;;;;;26.05;43.90;101648.41;4975054;28;20039;-62
2023/10/10 08:55:56;;;;;;;7.95;3.70;;;;;;;26.11;43.46;101643.13;4976130;28;20055;-62
2023/10/10 08:58:22;;;;;;;10.65;3.38;;;;;;;26.23;43.45;101645.06;4976028;28;20042;-64
2023/10/10 09:00:48;;;;;;;7.40;4.05;;;;;;;26.32;43.23;101649.28;4976028;28;20039;-64
2023/10/10 09:03:13;;;;;;;14.43;3.63;;;;;;;26.48;43.33;101645.25;4974730;28;20049;-64
2023/10/10 09:05:39;;;;;;;10.00;3.72;;;;;;;26.60;42.71;101646.31;4975918;28;20518;-64
2023/10/10 09:08:14;;;;;;;9.35;3.30;;;;;;;26.88;42.59;101657.91;4990741;28;20035;-66
2023/10/10 09:10:40;;;;;;;12.40;3.47;;;;;;;27.03;42.06;101647.47;4989680;28;20483;-61
2023/10/10 09:13:13;;;;;;;9.98;3.85;;;;;;;27.28;42.22;101652.22;4990752;28;20396;-61
2023/10/10 09:15:54;;;;;;;10.13;3.33;;;;;;;27.57;42.22;101651.69;4989960;28;20027;-62
2023/10/10 09:18:23;;;;;;;8.93;3.33;;;;;;;27.66;41.47;101653.13;4990254;28;20085;-63
2023/10/10 09:20:49;;;;;;;12.38;3.80;;;;;;;28.43;40.19;101647.25;4974373;28;20085;-63
2023/10/10 09:23:26;;;;;;;9.55;3.75;;;;;;;29.14;39.74;101647.56;4974362;28;20031;-63
2023/10/10 09:26:29;;;;;;;5.93;3.45;;;;;;;29.24;39.38;101641.50;4974362;28;20039;-62
2023/10/10 09:28:58;;;;;;;;;;;;;;;29.52;39.70;101650.06;4976017;28;20027;-62
2023/10/10 09:31:31;;;;;;;4.68;3.03;;;;;;;29.80;39.39;101633.72;4974508;28;19914;-62
2023/10/10 09:33:57;;;;;;;6.75;3.38;;;;;;;30.23;38.88;101639.00;4974174;28;20070;-62
2023/10/10 09:36:27;;;;;;;6.30;3.10;;;;;;;30.41;38.42;101643.56;4990141;28;20066;-62
2023/10/10 09:38:55;;;;;;;8.60;3.88;;;;;;;30.55;38.48;101640.34;4974277;28;20042;-63
2023/10/10 09:41:36;;;;;;;9.45;3.15;;;;;;;30.87;37.97;101642.72;4975562;28;20126;-62
2023/10/10 09:52:50;;;;;;;7.00;3.13;;;;;;;32.02;36.48;101638.69;4934746;29;20039;-62
2023/10/10 09:57:48;;;;;;;6.88;3.60;;;;;;;32.85;36.11;101635.03;4934517;29;20048;-63
2023/10/10 10:00:14;;;;;;;7.38;3.00;;;;;;;33.20;35.27;101638.28;4919116;29;20047;-63
2023/10/10 10:02:43;;;;;;;11.32;3.50;;;;;;;33.65;35.85;101635.22;4918693;29;20079;-62
2023/10/10 10:05:14;;;;;;;6.43;3.70;;;;;;;34.05;34.87;101629.19;4918770;29;20466;-62
2023/10/10 10:07:58;;;;;;;6.53;3.90;;;;;;;34.41;34.11;101633.13;4934869;29;20035;-62
2023/10/10 10:10:48;;;;;;;7.53;3.45;;;;;;;34.65;33.66;101634.41;4934918;29;20048;-62
2023/10/10 10:13:43;;;;;;;8.98;3.47;;;;;;;34.85;33.71;101636.47;4934881;29;20044;-63
2023/10/10 10:16:37;;;;;;;8.05;3.92;;;;;;;34.91;34.14;101621.47;4934735;29;20032;-62
2023/10/10 10:19:17;;;;;;;8.73;3.30;;;;;;;35.12;33.31;101630.81;4919570;29;20097;-63
2023/10/10 10:24:50;;;;;;;7.40;3.45;;;;;;;35.63;32.62;101638.22;4975198;28;20041;-63
2023/10/10 10:27:25;;;;;;;7.50;3.25;;;;;;;35.76;32.33;101639.66;4973759;28;20126;-62
2023/10/10 10:30:18;;;;;;;9.68;3.75;;;;;;;36.02;31.68;101639.41;4973623;28;20034;-62
2023/10/10 10:32:48;;;;;;;6.68;3.22;;;;;;;36.07;32.21;101633.81;4987035;28;20038;-63
2023/10/10 10:35:22;;;;;;;5.78;2.92;;;;;;;36.31;31.16;101636.06;4989519;28;20038;-64
2023/10/10 10:37:59;;;;;;;6.18;3.20;;;;;;;36.48;31.44;101623.47;4973549;28;20598;-62
2023/10/10 10:40:41;;;;;;;10.25;3.35;;;;;;;36.54;31.08;101615.94;4972987;28;20042;-62
2023/10/10 10:43:14;;;;;;;8.93;3.35;;;;;;;36.26;31.44;101622.94;4974314;28;20039;-62
2023/10/10 10:45:51;;;;;;;5.43;2.90;;;;;;;36.54;30.61;101618.75;4988353;28;20038;-62
2023/10/10 10:48:35;;;;;;;8.80;3.45;;;;;;;36.64;30.59;101611.16;4987649;28;20041;-62
2023/10/10 10:51:27;;;;;;;5.45;3.13;;;;;;;36.16;30.94;101623.78;4986954;28;20085;-61
2023/10/10 10:53:58;;;;;;;6.35;2.92;;;;;;;36.14;31.15;101620.44;4972931;28;20039;-62
2023/10/10 10:59:12;;;;;;;6.88;3.22;;;;;;;36.66;30.34;101622.03;4974214;28;20046;-63
2023/10/10 11:01:51;;;;;;;10.60;3.15;;;;;;;36.53;30.20;101617.06;4989080;28;20117;-63
2023/10/10 11:04:25;;;;;;;9.98;3.38;;;;;;;36.43;30.13;101628.22;4972996;28;20101;-62
2023/10/10 11:06:59;;;;;;;5.80;2.90;;;;;;;36.59;29.96;101613.13;4972743;28;20089;-64
2023/10/10 11:09:28;;;;;;;3.72;2.85;;;;;;;36.56;29.61;101610.91;4972913;28;20038;-64
2023/10/10 11:12:02;;;;;;;7.43;3.05;;;;;;;36.62;29.46;101601.41;4972538;28;20121;-62
2023/10/10 11:14:32;;;;;;;5.65;3.08;;;;;;;36.73;29.90;101605.84;4987510;28;20039;-63
2023/10/10 11:16:58;;;;;;;6.07;3.10;;;;;;;36.92;29.33;101606.88;4972407;28;20113;-63
2023/10/10 11:22:14;;;;;;;5.65;3.00;;;;;;;37.28;29.00;101602.81;4990378;28;20041;-63
2023/10/10 11:24:46;;;;;;;7.72;2.97;;;;;;;37.49;29.08;101602.72;4987636;28;20379;-63
2023/10/10 11:29:50;;;;;;;7.72;3.45;;;;;;;37.69;28.48;101591.41;4988777;28;20039;-62
2023/10/10 11:32:24;;;;;;;8.05;3.28;;;;;;;37.74;28.19;101585.75;4988550;28;20038;-63
2023/10/10 11:34:56;;;;;;;7.50;3.47;;;;;;;37.75;28.11;101584.63;4982968;28;20143;-63
2023/10/10 11:37:26;;;;;;;6.05;3.45;;;;;;;37.70;28.98;101570.69;4988812;28;20093;-62
2023/10/10 11:42:54;;;;;;;8.90;3.58;;;;;;;37.67;28.45;101574.06;4972538;28;20038;-63
2023/10/10 11:45:25;;;;;;;7.40;3.40;;;;;;;37.70;28.04;101576.28;4972380;28;20397;-63
2023/10/10 11:47:52;;;;;;;14.25;3.75;;;;;;;37.76;28.18;101570.34;4972457;28;20027;-63
2023/10/10 11:50:17;;;;;;;8.05;3.67;;;;;;;37.80;28.34;101565.81;4988546;28;20042;-63
2023/10/10 11:52:53;;;;;;;9.40;3.28;;;;;;;37.85;27.60;101557.41;4972382;28;20058;-63
2023/10/10 11:55:25;;;;;;;7.80;3.17;;;;;;;37.90;27.57;101564.94;4988502;28;20410;-63
2023/10/10 11:57:51;;;;;;;7.22;2.20;;;;;;;37.95;27.92;101548.09;4972260;28;20098;-63
2023/10/10 12:00:29;;;;;;;8.65;4.40;;;;;;;38.01;27.49;101540.50;4974362;28;20035;-63
2023/10/10 12:02:57;;;;;;;9.75;2.80;;;;;;;37.93;27.78;101541.97;4975979;28;20403;-63
2023/10/10 12:06:14;;;;;;;7.50;2.88;;;;;;;37.93;27.93;101541.97;4975879;28;20073;-62
2023/10/10 12:08:13;;;;;;;4.53;2.95;;;;;;;37.93;27.47;101546.72;4982558;28;20039;-62
2023/10/10 12:10:52;;;;;;;5.45;3.00;;;;;;;37.89;28.00;101538.06;4991498;28;20046;-62
2023/10/10 12:16:07;;;;;;;6.20;2.80;;;;;;;37.82;27.20;101529.16;4991306;28;20066;-64
2023/10/10 12:18:34;;;;;;;5.60;2.78;;;;;;;37.81;27.36;101528.31;4976489;28;20035;-63
2023/10/10 12:21:02;;;;;;;5.63;2.80;;;;;;;37.79;28.01;101526.97;4992046;28;20114;-63
2023/10/10 12:23:30;;;;;;;5.75;3.10;;;;;;;37.78;27.38;101528.91;4991850;28;20030;-63
2023/10/10 12:25:56;;;;;;;6.05;3.03;;;;;;;37.76;27.93;101520.00;4976445;28;20039;-63
2023/10/10 12:28:21;;;;;;;7.82;2.80;;;;;;;37.80;27.21;101525.84;4977034;28;20035;-62
2023/10/10 12:30:47;;;;;;;9.30;2.92;;;;;;;37.84;27.73;101526.91;4975438;28;20039;-62
2023/10/10 12:33:19;;;;;;;5.85;2.85;;;;;;;37.88;27.72;101520.47;4991498;28;20097;-64
2023/10/10 12:35:48;;;;;;;8.55;3.65;;;;;;;37.90;27.39;101520.16;4991828;28;20031;-64
2023/10/10 12:38:20;;;;;;;4.38;2.55;;;;;;;37.88;26.96;101528.88;4991336;28;20101;-63
2023/10/10 12:40:54;;;;;;;6.90;2.85;;;;;;;37.91;27.58;101521.00;4976231;28;20043;-63
2023/10/10 12:43:20;;;;;;;6.07;3.03;;;;;;;37.91;28.06;101516.25;4975233;28;20061;-63
2023/10/10 12:45:46;;;;;;;7.05;2.65;;;;;;;37.87;27.49;101510.41;4991342;28;20033;-62
2023/10/10 12:48:14;;;;;;;6.53;2.42;;;;;;;37.85;27.78;101514.59;4975299;28;20030;-63
2023/10/10 12:50:46;;;;;;;6.07;2.92;;;;;;;37.82;27.60;101513.22;4991445;28;20038;-62
2023/10/10 12:53:15;;;;;;;4.78;2.53;;;;;;;37.79;27.67;101502.63;4991445;28;20101;-63
2023/10/10 12:55:48;;;;;;;5.03;2.60;;;;;;;37.79;27.71;101502.63;4976750;28;20050;-63
2023/10/10 12:58:19;;;;;;;7.30;2.70;;;;;;;37.76;27.88;101505.16;4975262;28;20039;-63
2023/10/10 13:00:53;;;;;;;4.40;2.65;;;;;;;37.76;28.11;101502.34;4991189;28;20023;-63
2023/10/10 13:03:23;;;;;;;5.10;2.53;;;;;;;37.75;27.51;101506.28;4976430;28;20041;-62
2023/10/10 13:05:52;;;;;;;4.45;2.72;;;;;;;37.70;28.02;101492.34;4991409;28;20039;-62
2023/10/10 13:08:20;;;;;;;7.68;2.65;;;;;;;37.63;27.78;101494.66;4990865;28;20050;-63
2023/10/10 13:10:54;;;;;;;6.68;2.38;;;;;;;37.57;27.29;101498.63;4972344;28;20042;-61
2023/10/10 13:13:26;;;;;;;9.20;2.95;;;;;;;37.51;28.23;101488.59;4990067;28;20125;-62
2023/10/10 13:16:07;;;;;;;6.07;2.97;;;;;;;37.42;28.14;101495.91;4990034;28;20042;-63
2023/10/10 13:18:33;;;;;;;6.07;2.40;;;;;;;37.34;27.93;101488.97;4989096;28;20118;-63
2023/10/10 13:21:00;;;;;;;14.80;2.85;;;;;;;37.30;27.67;101483.13;4975662;28;20041;-62
2023/10/10 13:23:25;;;;;;;7.63;2.83;;;;;;;37.27;28.28;101483.72;4975973;28;20027;-62
2023/10/10 13:25:51;;;;;;;6.50;2.33;;;;;;;37.22;27.76;101486.56;4974435;28;20045;-62
2023/10/10 13:28:21;;;;;;;7.25;2.63;;;;;;;37.16;28.27;101493.28;4990842;28;20031;-62
2023/10/10 13:30:47;;;;;;;5.82;2.08;;;;;;;37.01;27.69;101485.03;4989374;28;20094;-64
2023/10/10 13:33:13;;;;;;;3.85;2.78;;;;;;;36.89;27.90;101476.13;4975927;28;20042;-62
2023/10/10 13:35:39;;;;;;;3.97;2.17;;;;;;;36.80;28.42;101483.44;4990587;28;20490;-63
2023/10/10 13:38:06;;;;;;;6.60;2.55;;;;;;;36.65;28.46;101480.72;4989422;28;20109;-61
2023/10/10 13:40:37;;;;;;;6.03;2.25;;;;;;;36.50;28.08;101480.78;4975553;28;20041;-62
2023/10/10 13:43:08;;;;;;;4.50;2.10;;;;;;;36.34;28.75;101485.59;4958761;28;20041;-63
2023/10/10 13:45:38;;;;;;;8.38;2.10;;;;;;;36.16;28.54;101484.22;4958248;28;20046;-63
2023/10/10 13:48:08;;;;;;;7.05;2.67;;;;;;;35.96;28.95;101478.66;4990005;28;20109;-62
2023/10/10 13:50:41;;;;;;;9.38;2.70;;;;;;;35.74;28.74;101485.66;4989808;28;20031;-62
2023/10/10 13:53:12;;;;;;;4.07;2.05;;;;;;;35.54;29.58;101470.59;4989461;28;20411;-62
2023/10/10 13:55:38;;;;;;;11.23;2.38;;;;;;;35.36;29.39;101484.25;4989868;28;20050;-61
2023/10/10 13:58:07;;;;;;;4.55;1.98;;;;;;;35.11;29.48;101478.66;4973668;28;20031;-63
2023/10/10 14:01:13;;;;;;;4.45;2.25;;;;;;;34.92;29.40;101473.59;4989510;28;20113;-62
2023/10/10 14:03:46;;;;;;;3.92;1.92;;;;;;;34.76;29.62;101476.63;4975288;28;20039;-62
2023/10/10 14:06:26;;;;;;;4.13;1.98;;;;;;;34.61;30.33;101477.38;4989530;28;20031;-63
2023/10/10 14:08:52;;;;;;;4.72;2.25;;;;;;;34.47;29.90;101470.63;4973511;28;20057;-61
2023/10/10 14:11:21;;;;;;;11.05;2.00;;;;;;;34.36;30.71;101471.69;4989791;28;20058;-63
2023/10/10 14:13:53;;;;;;;4.15;1.98;;;;;;;34.23;30.74;101469.41;4973592;28;20510;-62
2023/10/10 14:16:20;;;;;;;6.22;2.13;;;;;;;34.12;30.30;101467.63;4989815;28;20089;-62
2023/10/10 14:18:50;;;;;;;7.97;2.22;;;;;;;33.96;30.15;101475.03;4989502;28;20034;-64
2023/10/10 14:21:24;;;;;;;6.13;2.80;;;;;;;33.77;30.02;101477.41;4989386;28;20046;-64
2023/10/10 14:23:51;;;;;;;3.20;1.73;;;;;;;33.66;29.80;101470.13;4987834;28;20037;-64
2023/10/10 14:26:26;;;;;;;3.15;1.58;;;;;;;33.52;30.25;101463.31;4989372;28;20039;-64
2023/10/10 14:28:51;;;;;;;5.55;2.25;;;;;;;33.44;30.93;101466.56;4988303;28;20110;-63
2023/10/10 14:31:21;;;;;;;5.35;1.98;;;;;;;33.34;29.94;101458.97;4974369;28;20123;-63
2023/10/10 14:33:50;;;;;;;4.60;2.38;;;;;;;33.27;30.92;101466.69;4973162;28;20038;-63